createdAt,value
2022-10-08T18:22:54.390Z,44
2022-10-08T20:02:54.225Z,74
2022-10-08T20:07:54.203Z,76
2022-10-08T20:22:54.214Z,74
2022-10-08T20:27:54.212Z,73
2022-10-08T20:37:54.212Z,61
2022-10-08T21:02:54.197Z,49
2022-10-08T21:07:54.198Z,55
2022-10-08T21:12:54.217Z,49
2022-10-08T21:17:54.241Z,53
2022-10-08T21:22:54.197Z,42
2022-10-08T21:27:54.238Z,32
2022-10-08T21:32:54.207Z,17
2022-10-08T21:37:54.211Z,21
2022-10-08T21:42:54.237Z,24
2022-10-08T21:47:54.222Z,22
2022-10-08T21:52:54.241Z,26
2022-10-08T21:57:54.244Z,21
2022-10-08T22:02:54.274Z,18
2022-10-08T22:07:54.243Z,23
2022-10-08T22:12:54.251Z,25
2022-10-08T22:17:54.224Z,28
2022-10-08T22:22:54.235Z,39
2022-10-08T22:27:54.257Z,35
2022-10-08T22:32:54.254Z,28
2022-10-08T22:37:54.267Z,27
2022-10-08T22:42:54.256Z,34
2022-10-08T22:47:54.269Z,35
2022-10-08T22:52:54.198Z,34
2022-10-08T22:57:54.267Z,36
2022-10-08T23:02:54.318Z,32
2022-10-08T23:07:54.251Z,33
2022-10-08T23:12:54.274Z,32
2022-10-08T23:17:54.262Z,32
2022-10-08T23:22:54.286Z,27
2022-10-08T23:32:54.290Z,25
2022-10-08T23:37:54.274Z,31
2022-10-08T23:42:54.273Z,23
2022-10-08T23:47:54.275Z,36
2022-10-08T23:52:54.289Z,26
2022-10-08T23:57:54.279Z,28
